Terminal Aerodrome Forecast
Issued by NWS

Home | Current Version | Previous Version | Text Only | Print | Product List | Glossary On
Versions: 1 2 3 4 5 6 7 8 9 10 11 12 13 14 15 16 17 18 19 20 21 22 23 24 25 26 27 28 29 30
677
FTUS45 KGJT 230540
TAFDRO
TAF
KDRO 230540Z 2306/2406 VRB04KT P6SM BKN150
     FM231400 21010KT P6SM BKN090 OVC120
     FM231800 23012G20KT P6SM VCSH OVC060
     FM232100 24012KT 5SM -SHRA OVC050
     FM240000 27013KT P6SM BKN030=

USA.gov is the U.S. government's official web portal to all federal, state and local government web resources and services.